Ida Theresa — V7RQ9 — position and weather

sailwx.info

Track history (hours):
 
Tides and Currents Weather Stations Pressure Air Temp Water Temp Dewpoint Dewpoint Depression Visibility Wind Speed Wind Dir Waves Ship Positions

Ida Theresa

Last reported at 2014-Sep-13 21:26 UTC. Time now 2014-Sep-20 07:56 UTC.
Position N 36°33' W 006°38'.

Length 121 m; draft 5.3 m.

Type: Tanker. MMSI: 538090386.

Date/timePositionNaut miles runAvg speedWind from/ knotsBaromVisibWave heightAir tempDewpointWater temp
2014-Sep-13 21:26N 36°33' W 006°38'2 2.1
2014-Sep-13 20:33N 36°32' W 006°36'9 8.9
2014-Sep-13 19:33N 36°23' W 006°37'1211.8
2014-Sep-13 18:33N 36°13' W 006°32'1311.5
2014-Sep-13 17:27N 36°04' W 006°20'1011.4
2014-Sep-13 16:33N 35°58' W 006°10'1211.9
2014-Sep-13 15:33N 35°58' W 005°55'3110.2
2014-Sep-13 12:32N 36°06' W 005°19'219 9.5
2014-Sep-12 13:33N 36°58' W 000°54'1211.6
2014-Sep-12 12:33N 37°04' W 000°42'2412.0
2014-Sep-12 10:33N 37°15' W 000°15'7712.2
2014-Sep-12 04:16N 37°52' E 001°10'811.3
2014-Sep-12 03:33N 37°56' E 001°19'4410.9
2014-Sep-11 23:33N 38°18' E 002°07'1111.0
2014-Sep-11 22:33N 38°21' E 002°20'1111.4
2014-Sep-11 21:33N 38°27' E 002°32'1211.6
2014-Sep-11 20:33N 38°32' E 002°45'1211.9
2014-Sep-11 19:33N 38°38' E 002°59'1212.4
2014-Sep-11 18:33N 38°44' E 003°13'1312.4
2014-Sep-11 17:31N 38°50' E 003°27'1212.5
2014-Sep-11 16:33N 38°56' E 003°41'1312.4
2014-Sep-11 15:31N 39°02' E 003°55'18512.3
2014-Sep-11 00:30N 40°46' E 007°15'1512.8
2014-Sep-10 23:22N 40°54' E 007°31'10711.7
2014-Sep-10 14:14N 41°27' E 009°46'  
2014-Sep-04 18:19N 31°27' E 032°24'1012.5
2014-Sep-04 17:33N 31°18' E 032°22'12 8.8
2014-Sep-04 16:10N 31°06' E 032°19'6 9.3
2014-Sep-04 15:33N 31°00' E 032°19'43 3.0
2014-Sep-04 01:15N 30°18' E 032°26'0 0.1
2014-Sep-04 00:32N 30°18' E 032°26'8 8.1
2014-Sep-03 23:33N 30°13' E 032°33'9 8.9
2014-Sep-03 22:33N 30°04' E 032°34'9 8.6
2014-Sep-03 21:32N 29°55' E 032°33'  
Track history (hours):
 
Tides and Currents Weather Stations Pressure Air Temp Water Temp Dewpoint Dewpoint Depression Visibility Wind Speed Wind Dir Waves Ship Positions

Ida Theresa

Last reported at 2014-Sep-13 21:26 UTC. Time now 2014-Sep-20 07:56 UTC.
Position N 36°33' W 006°38'.

Length 121 m; draft 5.3 m.

Type: Tanker. MMSI: 538090386.

Date/timePositionNaut miles runAvg speedWind from/ knotsBaromVisibWave heightAir tempDewpointWater temp
2014-Sep-13 21:26N 36°33' W 006°38'2 2.1
2014-Sep-13 20:33N 36°32' W 006°36'9 8.9
2014-Sep-13 19:33N 36°23' W 006°37'1211.8
2014-Sep-13 18:33N 36°13' W 006°32'1311.5
2014-Sep-13 17:27N 36°04' W 006°20'1011.4
2014-Sep-13 16:33N 35°58' W 006°10'1211.9
2014-Sep-13 15:33N 35°58' W 005°55'3110.2
2014-Sep-13 12:32N 36°06' W 005°19'219 9.5
2014-Sep-12 13:33N 36°58' W 000°54'1211.6
2014-Sep-12 12:33N 37°04' W 000°42'2412.0
2014-Sep-12 10:33N 37°15' W 000°15'7712.2
2014-Sep-12 04:16N 37°52' E 001°10'811.3
2014-Sep-12 03:33N 37°56' E 001°19'4410.9
2014-Sep-11 23:33N 38°18' E 002°07'1111.0
2014-Sep-11 22:33N 38°21' E 002°20'1111.4
2014-Sep-11 21:33N 38°27' E 002°32'1211.6
2014-Sep-11 20:33N 38°32' E 002°45'1211.9
2014-Sep-11 19:33N 38°38' E 002°59'1212.4
2014-Sep-11 18:33N 38°44' E 003°13'1312.4
2014-Sep-11 17:31N 38°50' E 003°27'1212.5
2014-Sep-11 16:33N 38°56' E 003°41'1312.4
2014-Sep-11 15:31N 39°02' E 003°55'18512.3
2014-Sep-11 00:30N 40°46' E 007°15'1512.8
2014-Sep-10 23:22N 40°54' E 007°31'10711.7
2014-Sep-10 14:14N 41°27' E 009°46'  
2014-Sep-04 18:19N 31°27' E 032°24'1012.5
2014-Sep-04 17:33N 31°18' E 032°22'12 8.8
2014-Sep-04 16:10N 31°06' E 032°19'6 9.3
2014-Sep-04 15:33N 31°00' E 032°19'43 3.0
2014-Sep-04 01:15N 30°18' E 032°26'0 0.1
2014-Sep-04 00:32N 30°18' E 032°26'8 8.1
2014-Sep-03 23:33N 30°13' E 032°33'9 8.9
2014-Sep-03 22:33N 30°04' E 032°34'9 8.6
2014-Sep-03 21:32N 29°55' E 032°33'  

Dump ship's entire track history